createdAt,value
2019-04-27T00:01:29.477Z,12.60
2019-04-27T00:04:19.040Z,11.50
2019-04-27T00:06:48.012Z,12.07
2019-04-27T00:09:18.274Z,12.33
2019-04-27T00:11:48.505Z,13.15
2019-04-27T00:14:18.210Z,12.93
2019-04-27T00:16:51.367Z,12.30
2019-04-27T00:19:39.847Z,12.98
2019-04-27T00:22:10.271Z,12.25
2019-04-27T00:24:38.885Z,11.88
2019-04-27T00:27:07.714Z,12.75
2019-04-27T00:29:36.518Z,12.70
2019-04-27T00:32:05.830Z,12.68
2019-04-27T00:34:35.022Z,12.82
2019-04-27T00:37:08.310Z,13.18
2019-04-27T00:39:38.554Z,13.83
2019-04-27T00:42:07.263Z,12.60
2019-04-27T00:44:35.824Z,13.55
2019-04-27T00:47:06.348Z,13.78
2019-04-27T00:49:35.090Z,13.50
2019-04-27T00:52:04.406Z,13.35
2019-04-27T00:54:34.004Z,13.48
2019-04-27T00:57:19.541Z,13.38
2019-04-27T01:00:06.268Z,13.72
2019-04-27T01:02:45.345Z,13.70
2019-04-27T01:05:15.914Z,13.35
2019-04-27T01:07:44.460Z,13.48
2019-04-27T01:10:13.526Z,13.80
2019-04-27T01:12:42.992Z,13.72
2019-04-27T01:15:13.598Z,14.75
2019-04-27T01:17:42.273Z,14.23
2019-04-27T01:20:11.383Z,14.03
2019-04-27T01:22:40.013Z,14.50
2019-04-27T01:25:09.075Z,14.40
2019-04-27T01:27:51.472Z,14.33
2019-04-27T01:30:33.847Z,14.38
2019-04-27T01:33:02.467Z,15.43
2019-04-27T01:35:31.175Z,14.60
2019-04-27T01:38:00.057Z,14.68
2019-04-27T01:40:29.557Z,14.87
2019-04-27T01:42:58.823Z,15.00
2019-04-27T01:45:29.014Z,15.50
2019-04-27T01:47:59.547Z,15.40
2019-04-27T01:50:29.043Z,15.20
2019-04-27T01:52:58.777Z,14.10
2019-04-27T01:55:27.576Z,15.50
2019-04-27T01:57:56.196Z,15.35
2019-04-27T02:00:31.933Z,15.00
2019-04-27T02:03:02.244Z,15.32
2019-04-27T02:05:49.296Z,15.95
2019-04-27T02:08:19.475Z,16.20
2019-04-27T02:10:49.598Z,16.37
2019-04-27T02:13:18.925Z,16.37
2019-04-27T02:15:48.657Z,15.25
2019-04-27T02:18:19.307Z,17.07
2019-04-27T02:20:49.238Z,16.50
2019-04-27T02:23:19.199Z,16.07
2019-04-27T02:25:49.620Z,16.45
2019-04-27T02:28:20.075Z,17.05
2019-04-27T02:30:50.489Z,17.17
2019-04-27T02:33:30.173Z,15.48
2019-04-27T02:36:00.402Z,17.50
2019-04-27T02:38:30.475Z,16.37
2019-04-27T02:41:01.772Z,17.75
2019-04-27T02:43:40.674Z,15.93
2019-04-27T02:46:09.789Z,15.93
2019-04-27T02:48:52.803Z,16.15
2019-04-27T02:51:10.983Z,16.30
2019-04-27T02:53:55.991Z,16.42
2019-04-27T02:56:25.056Z,17.12
2019-04-27T02:58:53.997Z,17.95
2019-04-27T03:01:24.808Z,17.17
2019-04-27T03:03:53.554Z,18.00
2019-04-27T03:06:23.073Z,17.73
2019-04-27T03:08:54.181Z,18.67
2019-04-27T03:11:23.427Z,18.98
2019-04-27T03:13:53.965Z,21.45
2019-04-27T03:16:24.220Z,19.23
2019-04-27T03:19:10.093Z,21.77
2019-04-27T03:21:29.837Z,20.97
2019-04-27T03:24:00.194Z,20.95
2019-04-27T03:26:31.126Z,21.15
2019-04-27T03:29:00.106Z,21.00
2019-04-27T03:31:32.721Z,21.35
2019-04-27T03:34:04.737Z,21.52
2019-04-27T03:36:31.733Z,22.55
2019-04-27T03:39:00.179Z,21.77
2019-04-27T03:41:29.326Z,22.60
2019-04-27T03:43:59.565Z,25.37
2019-04-27T03:46:30.239Z,22.65
2019-04-27T03:49:00.040Z,20.75
2019-04-27T03:51:33.448Z,22.58
2019-04-27T03:54:03.814Z,20.82
2019-04-27T03:56:39.463Z,21.37
2019-04-27T03:59:12.170Z,20.70
2019-04-27T04:01:41.142Z,21.25
2019-04-27T04:04:10.559Z,21.60
2019-04-27T04:06:40.135Z,21.42
2019-04-27T04:09:10.477Z,22.40
2019-04-27T04:11:49.958Z,22.52
2019-04-27T04:14:25.731Z,22.70
2019-04-27T04:17:01.780Z,21.62
2019-04-27T04:19:31.560Z,21.75
2019-04-27T04:21:59.941Z,22.55
2019-04-27T04:24:31.701Z,21.23
2019-04-27T04:26:59.946Z,22.20
2019-04-27T04:29:30.705Z,21.75
2019-04-27T04:32:00.480Z,21.62
2019-04-27T04:34:29.905Z,22.32
2019-04-27T04:37:00.427Z,22.15
2019-04-27T04:39:29.720Z,21.30
2019-04-27T04:42:03.123Z,19.25
2019-04-27T04:44:36.361Z,20.72
2019-04-27T04:47:10.342Z,20.30
2019-04-27T04:49:39.811Z,20.15
2019-04-27T04:52:09.654Z,18.45
2019-04-27T04:54:40.717Z,18.27
2019-04-27T04:57:09.309Z,19.23
2019-04-27T04:59:38.984Z,18.40
2019-04-27T05:02:10.327Z,19.27
2019-04-27T05:04:39.046Z,18.67
2019-04-27T05:07:09.249Z,17.87
2019-04-27T05:09:39.563Z,19.25
2019-04-27T05:12:08.889Z,16.73
2019-04-27T05:14:38.929Z,16.93
2019-04-27T05:17:09.310Z,17.02
2019-04-27T05:19:38.919Z,17.52
2019-04-27T05:22:09.226Z,19.07
2019-04-27T05:24:39.367Z,16.27
2019-04-27T05:27:09.268Z,16.52
2019-04-27T05:29:38.950Z,18.05
2019-04-27T05:32:09.120Z,17.82
2019-04-27T05:34:39.465Z,18.02
2019-04-27T05:37:08.934Z,18.27
2019-04-27T05:39:38.928Z,19.95
2019-04-27T05:42:12.466Z,22.80
2019-04-27T05:45:06.689Z,19.10
2019-04-27T05:47:43.322Z,18.42
2019-04-27T05:50:18.263Z,18.60
2019-04-27T05:52:44.257Z,17.52
2019-04-27T05:55:13.062Z,17.52
2019-04-27T05:57:41.736Z,19.12
2019-04-27T06:00:12.155Z,18.40
2019-04-27T06:02:40.721Z,18.10
2019-04-27T06:05:09.592Z,19.65
2019-04-27T06:07:39.603Z,20.15
2019-04-27T06:10:09.552Z,18.42
2019-04-27T06:12:39.591Z,18.07
2019-04-27T06:15:09.772Z,19.35
2019-04-27T06:17:38.767Z,19.05
2019-04-27T06:20:09.057Z,23.73
2019-04-27T06:22:39.033Z,21.73
2019-04-27T06:25:11.375Z,23.60
2019-04-27T06:27:39.682Z,20.30
2019-04-27T06:30:09.329Z,23.12
2019-04-27T06:32:39.560Z,22.62
2019-04-27T06:35:12.227Z,21.40
2019-04-27T06:37:40.115Z,18.57
2019-04-27T06:40:09.779Z,20.35
2019-04-27T06:42:39.849Z,17.87
2019-04-27T06:45:09.913Z,18.02
2019-04-27T06:47:39.655Z,17.50
2019-04-27T06:50:10.152Z,17.85
2019-04-27T06:52:39.107Z,18.92
2019-04-27T06:55:09.362Z,17.40
2019-04-27T06:57:39.106Z,15.45
2019-04-27T07:00:09.341Z,16.00
2019-04-27T07:02:39.244Z,16.23
2019-04-27T07:05:08.990Z,15.80
2019-04-27T07:07:39.478Z,15.55
2019-04-27T07:10:08.743Z,23.95
2019-04-27T07:12:38.739Z,18.87
2019-04-27T07:15:08.900Z,15.30
2019-04-27T07:17:38.915Z,14.70
2019-04-27T07:20:09.020Z,15.03
2019-04-27T07:22:39.541Z,15.78
2019-04-27T07:25:09.033Z,14.87
2019-04-27T07:27:39.494Z,14.95
2019-04-27T07:30:11.870Z,14.25
2019-04-27T07:32:40.237Z,14.53
2019-04-27T07:35:09.836Z,13.80
2019-04-27T07:37:39.307Z,14.43
2019-04-27T07:40:09.062Z,15.55
2019-04-27T07:42:39.711Z,15.98
2019-04-27T07:45:15.914Z,18.42
2019-04-27T07:47:45.919Z,16.10
2019-04-27T07:50:14.621Z,15.55
2019-04-27T07:52:43.267Z,15.40
2019-04-27T07:55:12.088Z,12.58
2019-04-27T07:57:40.741Z,13.35
2019-04-27T08:00:10.326Z,11.70
2019-04-27T08:02:39.168Z,10.98
2019-04-27T08:05:09.323Z,11.25
2019-04-27T08:07:39.125Z,10.03
2019-04-27T08:10:09.727Z,10.05
2019-04-27T08:12:38.683Z,10.68
2019-04-27T08:15:08.906Z,10.25
2019-04-27T08:17:38.321Z,10.35
2019-04-27T08:20:09.109Z,10.03
2019-04-27T08:22:38.908Z,8.93
2019-04-27T08:25:09.445Z,23.20
2019-04-27T08:27:39.795Z,15.05
2019-04-27T08:30:10.370Z,9.05
2019-04-27T08:32:41.589Z,9.20
2019-04-27T08:35:10.677Z,9.28
2019-04-27T08:37:39.341Z,9.68
2019-04-27T08:40:09.340Z,9.65
2019-04-27T08:42:39.116Z,9.58
2019-04-27T08:45:09.404Z,8.25
2019-04-27T08:47:39.424Z,9.53
2019-04-27T08:50:09.196Z,9.35
2019-04-27T08:52:39.384Z,8.53
2019-04-27T08:55:09.562Z,8.70
2019-04-27T08:57:38.910Z,8.50
2019-04-27T09:00:11.005Z,9.88
2019-04-27T09:02:46.551Z,9.75
2019-04-27T09:05:10.049Z,9.03
2019-04-27T09:07:43.267Z,8.60
2019-04-27T09:10:32.305Z,9.93
2019-04-27T09:13:02.544Z,9.20
2019-04-27T09:15:39.136Z,9.53
2019-04-27T09:18:09.002Z,8.10
2019-04-27T09:20:51.241Z,8.65
2019-04-27T09:23:19.971Z,9.40
2019-04-27T09:25:49.600Z,9.13
2019-04-27T09:28:20.169Z,9.33
2019-04-27T09:30:49.791Z,8.60
2019-04-27T09:33:18.690Z,8.05
2019-04-27T09:35:48.356Z,8.18
2019-04-27T09:38:18.476Z,8.13
2019-04-27T09:40:47.177Z,7.30
2019-04-27T09:43:15.839Z,7.97
2019-04-27T09:45:44.367Z,7.87
2019-04-27T09:48:13.078Z,8.28
2019-04-27T09:50:41.828Z,8.58
2019-04-27T09:53:10.450Z,8.15
2019-04-27T09:55:39.051Z,8.38
2019-04-27T09:58:07.738Z,9.23
2019-04-27T10:00:36.706Z,8.08
2019-04-27T10:03:06.561Z,8.30
2019-04-27T10:05:36.734Z,7.65
2019-04-27T10:08:06.213Z,8.85
2019-04-27T10:10:36.999Z,8.80
2019-04-27T10:13:06.977Z,8.70
2019-04-27T10:15:35.660Z,8.38
2019-04-27T10:18:06.063Z,7.95
2019-04-27T10:20:40.421Z,9.45
2019-04-27T10:23:06.283Z,9.63
2019-04-27T10:25:35.542Z,8.53
2019-04-27T10:28:06.716Z,8.93
2019-04-27T10:30:35.919Z,8.20
2019-04-27T10:33:07.645Z,9.20
2019-04-27T10:35:36.360Z,11.15
2019-04-27T10:38:05.300Z,7.47
2019-04-27T10:40:33.879Z,8.55
2019-04-27T10:43:02.485Z,8.08
2019-04-27T10:45:31.158Z,8.35
2019-04-27T10:47:59.899Z,7.47
2019-04-27T10:50:28.646Z,7.70
2019-04-27T10:52:59.303Z,8.73
2019-04-27T10:55:27.837Z,12.40
2019-04-27T10:57:56.495Z,17.55
2019-04-27T11:00:27.017Z,19.27
2019-04-27T11:02:56.535Z,20.95
2019-04-27T11:05:31.060Z,20.62
2019-04-27T11:08:00.087Z,19.03
2019-04-27T11:10:28.695Z,15.72
2019-04-27T11:12:57.510Z,14.70
2019-04-27T11:15:26.510Z,12.37
2019-04-27T11:17:56.117Z,11.28
2019-04-27T11:20:27.477Z,12.70
2019-04-27T11:23:06.665Z,11.75
2019-04-27T11:25:26.361Z,11.50
2019-04-27T11:27:57.475Z,11.03
2019-04-27T11:30:25.542Z,11.63
2019-04-27T11:32:56.729Z,10.63
2019-04-27T11:35:26.062Z,10.05
2019-04-27T11:37:56.364Z,10.18
2019-04-27T11:40:25.575Z,10.18
2019-04-27T11:42:57.065Z,11.43
2019-04-27T11:45:24.473Z,11.95
2019-04-27T11:47:53.166Z,11.38
2019-04-27T11:50:21.974Z,10.72
2019-04-27T11:52:52.177Z,10.45
2019-04-27T11:55:20.893Z,10.00
2019-04-27T11:57:49.652Z,10.28
2019-04-27T12:00:21.365Z,10.38
2019-04-27T12:02:50.103Z,10.15
2019-04-27T12:05:19.318Z,10.35
2019-04-27T12:07:48.011Z,10.35
2019-04-27T12:10:17.741Z,10.25
2019-04-27T12:12:46.474Z,10.85
2019-04-27T12:15:16.232Z,10.45
2019-04-27T12:17:46.123Z,9.98
2019-04-27T12:20:17.512Z,10.43
2019-04-27T12:22:45.416Z,9.40
2019-04-27T12:25:14.455Z,9.70
2019-04-27T12:27:45.837Z,10.18
2019-04-27T12:30:22.518Z,9.58
2019-04-27T12:32:51.815Z,8.63
2019-04-27T12:35:25.564Z,8.83
2019-04-27T12:37:55.811Z,9.40
2019-04-27T12:40:26.668Z,9.25
2019-04-27T12:42:55.110Z,9.95
2019-04-27T12:45:23.994Z,9.28
2019-04-27T12:47:52.732Z,9.78
2019-04-27T12:50:21.508Z,9.60
2019-04-27T12:52:51.858Z,10.03
2019-04-27T12:55:28.585Z,9.80
2019-04-27T12:58:14.214Z,9.33
2019-04-27T13:01:02.702Z,10.28
2019-04-27T13:03:31.306Z,9.38
2019-04-27T13:05:59.938Z,11.40
2019-04-27T13:08:28.669Z,9.35
2019-04-27T13:10:57.519Z,9.80
2019-04-27T13:13:26.749Z,9.03
2019-04-27T13:15:56.332Z,9.05
2019-04-27T13:18:25.783Z,9.10
2019-04-27T13:20:54.927Z,8.98
2019-04-27T13:23:23.766Z,8.63
2019-04-27T13:25:52.351Z,8.80
2019-04-27T13:28:21.032Z,10.28
2019-04-27T13:30:49.664Z,9.88
2019-04-27T13:33:18.238Z,7.92
2019-04-27T13:35:46.878Z,8.98
2019-04-27T13:38:17.851Z,9.58
2019-04-27T13:40:47.461Z,9.30
2019-04-27T13:43:20.279Z,8.75
2019-04-27T13:48:38.771Z,7.83
2019-04-27T13:51:12.049Z,8.63
2019-04-27T13:53:40.775Z,9.10
2019-04-27T13:56:17.144Z,9.10
2019-04-27T13:58:46.408Z,8.88
2019-04-27T14:01:15.109Z,8.65
2019-04-27T14:03:45.158Z,9.18
2019-04-27T14:06:14.048Z,8.48
2019-04-27T14:08:42.694Z,8.03
2019-04-27T14:11:11.329Z,7.62
2019-04-27T14:13:39.990Z,8.03
2019-04-27T14:16:08.821Z,7.90
2019-04-27T14:18:38.433Z,8.63
2019-04-27T14:21:09.327Z,8.38
2019-04-27T14:23:38.609Z,8.98
2019-04-27T14:26:08.803Z,8.75
2019-04-27T14:28:37.626Z,9.98
2019-04-27T14:31:06.386Z,9.18
2019-04-27T14:33:35.045Z,9.13
2019-04-27T14:36:03.878Z,8.50
2019-04-27T14:38:32.481Z,9.53
2019-04-27T14:41:01.179Z,9.68
2019-04-27T14:43:29.737Z,9.60
2019-04-27T14:45:58.447Z,9.48
2019-04-27T14:48:27.096Z,10.15
2019-04-27T14:50:56.667Z,9.40
2019-04-27T14:53:25.238Z,10.75
2019-04-27T14:55:53.910Z,10.40
2019-04-27T14:58:22.518Z,11.12
2019-04-27T15:00:51.155Z,11.33
2019-04-27T15:03:19.757Z,9.93
2019-04-27T15:05:49.608Z,9.63
2019-04-27T15:08:18.797Z,10.13
2019-04-27T15:10:47.538Z,9.28
2019-04-27T15:13:18.637Z,9.73
2019-04-27T15:15:46.515Z,9.58
2019-04-27T15:18:15.363Z,8.83
2019-04-27T15:20:46.577Z,8.93
2019-04-27T15:23:15.534Z,9.00
2019-04-27T15:25:47.057Z,8.23
2019-04-27T15:28:16.097Z,8.58
2019-04-27T15:30:59.574Z,9.75
2019-04-27T15:33:41.798Z,9.03
2019-04-27T15:36:19.350Z,8.30
2019-04-27T15:38:51.317Z,7.80
2019-04-27T15:41:36.765Z,7.70
2019-04-27T15:44:06.104Z,7.70
2019-04-27T15:46:35.798Z,8.48
2019-04-27T15:49:08.034Z,8.85
2019-04-27T15:51:35.174Z,8.70
2019-04-27T15:54:04.237Z,8.98
2019-04-27T15:56:35.082Z,8.38
2019-04-27T15:59:03.613Z,9.43
2019-04-27T16:01:35.907Z,8.38
2019-04-27T16:04:06.976Z,8.18
2019-04-27T16:06:33.006Z,7.62
2019-04-27T16:09:01.859Z,9.08
2019-04-27T16:11:30.561Z,8.10
2019-04-27T16:14:02.959Z,7.78
2019-04-27T16:16:33.375Z,7.08
2019-04-27T16:19:03.672Z,7.85
2019-04-27T16:21:31.501Z,7.83
2019-04-27T16:24:00.270Z,7.33
2019-04-27T16:26:28.971Z,6.83
2019-04-27T16:28:58.063Z,7.35
2019-04-27T16:31:31.422Z,9.90
2019-04-27T16:33:59.113Z,7.37
2019-04-27T16:36:28.823Z,7.67
2019-04-27T16:38:59.165Z,7.47
2019-04-27T16:41:28.172Z,7.62
2019-04-27T16:43:58.154Z,7.20
2019-04-27T16:46:28.528Z,7.33
2019-04-27T16:48:59.289Z,7.83
2019-04-27T16:51:33.281Z,7.40
2019-04-27T16:53:58.447Z,7.58
2019-04-27T16:56:28.512Z,8.25
2019-04-27T16:59:02.641Z,7.47
2019-04-27T17:01:30.385Z,7.25
2019-04-27T17:03:59.576Z,8.58
2019-04-27T17:06:29.546Z,7.72
2019-04-27T17:09:05.743Z,8.53
2019-04-27T17:11:29.796Z,7.97
2019-04-27T17:14:03.214Z,7.35
2019-04-27T17:16:45.797Z,8.50
2019-04-27T17:19:21.833Z,8.33
2019-04-27T17:21:50.502Z,8.88
2019-04-27T17:24:42.013Z,9.18
2019-04-27T17:27:06.163Z,8.65
2019-04-27T17:29:38.528Z,9.18
2019-04-27T17:32:08.560Z,9.03
2019-04-27T17:34:37.242Z,9.13
2019-04-27T17:37:05.938Z,8.93
2019-04-27T17:39:34.550Z,8.70
2019-04-27T17:42:03.425Z,9.15
2019-04-27T17:44:32.051Z,8.63
2019-04-27T17:47:00.673Z,8.65
2019-04-27T17:49:29.426Z,8.83
2019-04-27T17:51:58.640Z,8.48
2019-04-27T17:54:28.991Z,8.75
2019-04-27T17:56:57.643Z,10.18
2019-04-27T17:59:26.221Z,9.13
2019-04-27T18:02:00.807Z,9.28
2019-04-27T18:04:25.235Z,9.60
2019-04-27T18:06:55.548Z,10.48
2019-04-27T18:09:24.173Z,10.03
2019-04-27T18:11:54.369Z,10.00
2019-04-27T18:14:23.286Z,10.20
2019-04-27T18:16:51.986Z,10.08
2019-04-27T18:19:22.295Z,10.48
2019-04-27T18:22:00.876Z,10.45
2019-04-27T18:24:33.346Z,10.88
2019-04-27T18:27:15.638Z,10.40
2019-04-27T18:29:44.429Z,12.30
2019-04-27T18:32:13.127Z,11.28
2019-04-27T18:34:45.332Z,11.90
2019-04-27T18:37:14.426Z,10.93
2019-04-27T18:39:45.340Z,12.45
2019-04-27T18:42:12.714Z,13.08
2019-04-27T18:44:41.427Z,12.93
2019-04-27T18:47:10.062Z,13.03
2019-04-27T18:49:55.142Z,12.45
2019-04-27T18:52:47.240Z,12.60
2019-04-27T18:55:16.724Z,12.58
2019-04-27T18:57:41.854Z,13.55
2019-04-27T19:00:12.718Z,12.23
2019-04-27T19:02:41.472Z,13.15
2019-04-27T19:05:10.241Z,12.30
2019-04-27T19:07:38.830Z,12.75
2019-04-27T19:10:08.973Z,12.15
2019-04-27T19:12:39.417Z,12.30
2019-04-27T19:15:09.341Z,12.23
2019-04-27T19:17:38.661Z,12.03
2019-04-27T19:20:10.499Z,12.37
2019-04-27T19:22:39.267Z,12.37
2019-04-27T19:25:09.818Z,11.90
2019-04-27T19:27:58.208Z,11.48
2019-04-27T19:30:28.555Z,11.85
2019-04-27T19:32:57.197Z,11.88
2019-04-27T19:35:26.003Z,11.80
2019-04-27T19:37:54.575Z,12.60
2019-04-27T19:40:23.211Z,10.68
2019-04-27T19:42:51.845Z,11.83
2019-04-27T19:45:21.121Z,12.43
2019-04-27T19:47:49.986Z,11.48
2019-04-27T19:50:19.312Z,10.85
2019-04-27T19:52:50.169Z,12.58
2019-04-27T19:55:18.962Z,11.83
2019-04-27T19:57:49.629Z,11.75
2019-04-27T20:00:20.587Z,11.97
2019-04-27T20:02:49.265Z,10.90
2019-04-27T20:05:18.757Z,11.30
2019-04-27T20:07:48.247Z,10.28
2019-04-27T20:10:16.997Z,11.05
2019-04-27T20:12:45.610Z,10.75
2019-04-27T20:15:14.421Z,10.85
2019-04-27T20:17:43.086Z,10.63
2019-04-27T20:20:11.930Z,11.03
2019-04-27T20:22:40.538Z,10.75
2019-04-27T20:25:11.229Z,10.72
2019-04-27T20:27:48.777Z,10.60
2019-04-27T20:30:12.697Z,10.80
2019-04-27T20:32:41.362Z,11.73
2019-04-27T20:35:11.721Z,10.25
2019-04-27T20:37:41.544Z,10.08
2019-04-27T20:40:11.616Z,10.10
2019-04-27T20:42:41.518Z,10.53
2019-04-27T20:45:11.966Z,11.05
2019-04-27T20:47:40.886Z,10.72
2019-04-27T20:50:09.671Z,9.98
2019-04-27T20:52:42.763Z,9.93
2019-04-27T20:55:12.827Z,9.80
2019-04-27T20:57:41.735Z,10.38
2019-04-27T21:00:12.230Z,11.08
2019-04-27T21:02:42.561Z,10.85
2019-04-27T21:05:12.907Z,11.10
2019-04-27T21:07:52.869Z,10.58
2019-04-27T21:10:21.731Z,10.58
2019-04-27T21:12:51.897Z,10.00
2019-04-27T21:15:21.438Z,10.20
2019-04-27T21:17:51.232Z,10.50
2019-04-27T21:20:21.821Z,10.03
2019-04-27T21:22:53.227Z,9.78
2019-04-27T21:25:20.781Z,10.48
2019-04-27T21:27:51.254Z,9.65
2019-04-27T21:30:21.307Z,9.60
2019-04-27T21:32:50.843Z,9.33
2019-04-27T21:35:20.987Z,9.83
2019-04-27T21:37:51.152Z,9.48
2019-04-27T21:40:21.560Z,9.05
2019-04-27T21:42:51.294Z,9.50
2019-04-27T21:45:21.750Z,8.93
2019-04-27T21:47:51.888Z,8.85
2019-04-27T21:50:23.192Z,8.73
2019-04-27T21:52:53.325Z,8.75
2019-04-27T21:55:23.554Z,7.85
2019-04-27T21:57:52.571Z,7.85
2019-04-27T22:00:28.706Z,8.25
2019-04-27T22:02:57.289Z,7.67
2019-04-27T22:05:25.996Z,7.90
2019-04-27T22:07:54.556Z,7.42
2019-04-27T22:10:23.226Z,7.37
2019-04-27T22:12:51.923Z,7.80
2019-04-27T22:15:21.207Z,7.35
2019-04-27T22:17:49.817Z,7.47
2019-04-27T22:20:20.800Z,7.40
2019-04-27T22:22:51.682Z,7.92
2019-04-27T22:25:22.026Z,7.30
2019-04-27T22:27:51.379Z,7.45
2019-04-27T22:30:21.056Z,7.40
2019-04-27T22:32:51.371Z,8.33
2019-04-27T22:35:20.706Z,7.10
2019-04-27T22:37:51.747Z,7.60
2019-04-27T22:40:24.811Z,7.50
2019-04-27T22:43:01.615Z,7.92
2019-04-27T22:45:31.984Z,7.67
2019-04-27T22:48:01.292Z,7.75
2019-04-27T22:50:31.264Z,6.78
2019-04-27T22:52:59.985Z,7.42
2019-04-27T22:55:28.580Z,7.03
2019-04-27T22:58:14.274Z,7.35
2019-04-27T23:00:51.316Z,8.15
2019-04-27T23:03:24.440Z,7.37
2019-04-27T23:05:53.116Z,7.35
2019-04-27T23:08:22.665Z,7.70
2019-04-27T23:10:51.580Z,8.23
2019-04-27T23:13:21.347Z,7.90
2019-04-27T23:15:51.869Z,8.15
2019-04-27T23:18:20.830Z,8.15
2019-04-27T23:20:52.323Z,8.10
2019-04-27T23:23:21.799Z,8.55
2019-04-27T23:25:51.302Z,7.90
2019-04-27T23:28:20.879Z,8.28
2019-04-27T23:30:54.245Z,7.55
2019-04-27T23:33:22.809Z,7.28
2019-04-27T23:35:51.728Z,8.20
2019-04-27T23:38:20.970Z,7.90
2019-04-27T23:40:51.642Z,7.65
2019-04-27T23:43:19.952Z,7.20
2019-04-27T23:45:48.553Z,7.17
2019-04-27T23:48:17.159Z,7.53
2019-04-27T23:50:47.420Z,8.13
2019-04-27T23:53:21.912Z,7.80
2019-04-27T23:55:50.674Z,7.25
2019-04-27T23:58:19.436Z,7.28
